createdAt,value
2023-02-22T00:04:42.850Z,0
2023-02-22T00:09:46.969Z,0
2023-02-22T00:14:51.198Z,0
2023-02-22T00:19:55.344Z,0
2023-02-22T00:24:59.460Z,0
2023-02-22T00:30:03.648Z,0
2023-02-22T00:35:07.796Z,0
2023-02-22T00:40:11.989Z,0
2023-02-22T00:45:14.237Z,0
2023-02-22T00:50:18.423Z,0
2023-02-22T00:55:20.696Z,0
2023-02-22T01:00:24.831Z,0
2023-02-22T01:05:29.013Z,0
2023-02-22T01:10:33.170Z,0
2023-02-22T01:15:37.326Z,0
2023-02-22T01:20:41.495Z,0
2023-02-22T01:25:45.708Z,0
2023-02-22T01:30:50.073Z,0
2023-02-22T01:35:54.050Z,0
2023-02-22T01:40:58.114Z,0
2023-02-22T01:46:02.434Z,0
2023-02-22T01:51:06.460Z,0
2023-02-22T01:56:10.660Z,0
2023-02-22T02:01:15.001Z,0
2023-02-22T02:06:18.928Z,0
2023-02-22T02:11:23.086Z,0
2023-02-22T02:16:27.301Z,0
2023-02-22T02:21:31.429Z,0
2023-02-22T02:26:35.591Z,0
2023-02-22T02:31:39.847Z,0
2023-02-22T02:36:43.948Z,0
2023-02-22T02:41:46.265Z,0
2023-02-22T02:46:50.438Z,0
2023-02-22T02:51:52.640Z,0
2023-02-22T02:56:56.811Z,0
2023-02-22T03:02:00.986Z,0
2023-02-22T03:07:05.135Z,0
2023-02-22T03:17:13.436Z,0
2023-02-22T03:22:17.647Z,0
2023-02-22T03:27:21.782Z,0
2023-02-22T03:32:26.012Z,0
2023-02-22T03:37:30.101Z,0
2023-02-22T03:42:34.285Z,0
2023-02-22T03:47:38.447Z,0
2023-02-22T03:52:42.612Z,0
2023-02-22T03:57:46.792Z,0
2023-02-22T04:02:51.053Z,0
2023-02-22T04:07:55.080Z,0
2023-02-22T04:12:59.222Z,0
2023-02-22T04:18:03.422Z,0
2023-02-22T04:23:07.582Z,0
2023-02-22T04:28:11.740Z,0
2023-02-22T04:33:15.886Z,0
2023-02-22T04:38:20.070Z,0
2023-02-22T04:43:22.337Z,0
2023-02-22T04:48:26.547Z,0
2023-02-22T04:53:28.784Z,0
2023-02-22T04:58:33.050Z,0
2023-02-22T05:03:37.107Z,0
2023-02-22T05:08:41.255Z,0
2023-02-22T05:13:45.448Z,0
2023-02-22T05:18:49.598Z,0
2023-02-22T05:23:53.780Z,0
2023-02-22T05:28:57.941Z,0
2023-02-22T05:34:02.073Z,0
2023-02-22T05:39:06.266Z,0
2023-02-22T05:44:10.406Z,0
2023-02-22T05:49:14.566Z,0
2023-02-22T05:54:18.731Z,0
2023-02-22T05:59:22.898Z,0
2023-02-22T06:04:27.052Z,0
2023-02-22T06:09:31.261Z,1
2023-02-22T06:14:35.448Z,4
2023-02-22T06:19:39.589Z,10
2023-02-22T06:24:43.712Z,27
2023-02-22T06:29:47.900Z,56
2023-02-22T06:34:52.035Z,89
2023-02-22T06:39:54.330Z,136
2023-02-22T06:44:58.491Z,201
2023-02-22T06:50:00.863Z,290
2023-02-22T06:55:04.944Z,385
2023-02-22T07:00:09.096Z,497
2023-02-22T07:05:13.290Z,602
2023-02-22T07:10:17.411Z,742
2023-02-22T07:15:21.615Z,894
2023-02-22T07:20:25.744Z,1088
2023-02-22T07:25:29.929Z,1280
2023-02-22T07:30:34.336Z,1455
2023-02-22T07:40:42.417Z,1896
2023-02-22T07:45:46.653Z,2100
2023-02-22T07:50:50.730Z,2395
2023-02-22T07:55:54.912Z,2650
2023-02-22T08:00:59.099Z,2730
2023-02-22T08:06:03.282Z,2847
2023-02-22T08:11:07.434Z,3035
2023-02-22T08:16:11.580Z,3260
2023-02-22T08:21:16.141Z,3514
2023-02-22T08:26:19.872Z,3649
2023-02-22T08:31:24.117Z,3847
2023-02-22T08:36:28.199Z,4076
2023-02-22T08:41:30.509Z,4349
2023-02-22T08:46:34.631Z,4457
2023-02-22T08:51:36.928Z,4363
2023-02-22T09:01:45.361Z,4353
2023-02-22T09:06:47.537Z,4448
2023-02-22T09:11:53.198Z,4711
2023-02-22T09:16:55.862Z,4789
2023-02-22T09:21:59.986Z,4800
2023-02-22T09:27:04.194Z,4796
2023-02-22T09:32:08.599Z,4816
2023-02-22T09:37:12.508Z,4845
2023-02-22T09:42:16.658Z,4825
2023-02-22T09:47:20.833Z,4758
2023-02-22T09:52:25.016Z,4558
2023-02-22T09:57:29.157Z,4484
2023-02-22T10:02:33.324Z,4641
2023-02-22T10:07:37.462Z,4888
2023-02-22T10:12:41.604Z,5138
2023-02-22T10:17:45.814Z,5258
2023-02-22T10:22:49.975Z,5260
2023-02-22T10:27:54.102Z,5320
2023-02-22T10:32:58.308Z,5465
2023-02-22T10:38:02.426Z,5694
2023-02-22T10:43:04.716Z,5929
2023-02-22T10:48:08.940Z,6180
2023-02-22T10:53:11.117Z,6333
2023-02-22T10:58:15.307Z,6467
2023-02-22T11:03:19.430Z,6509
2023-02-22T11:08:23.650Z,6409
2023-02-22T11:13:27.812Z,6335
2023-02-22T11:18:31.952Z,6300
2023-02-22T11:23:36.118Z,6251
2023-02-22T11:28:40.254Z,6150
2023-02-22T11:33:44.409Z,5920
2023-02-22T11:38:48.574Z,5765
2023-02-22T11:43:52.724Z,5781
2023-02-22T11:48:56.921Z,5665
2023-02-22T11:54:01.074Z,5283
2023-02-22T11:59:05.204Z,5120
2023-02-22T12:04:09.531Z,5145
2023-02-22T12:09:13.522Z,5183
2023-02-22T12:14:17.750Z,5331
2023-02-22T12:19:21.834Z,5413
2023-02-22T12:24:26.004Z,5417
2023-02-22T12:29:30.190Z,5610
2023-02-22T12:34:34.381Z,5704
2023-02-22T12:39:51.816Z,5608
2023-02-22T12:44:40.770Z,5440
2023-02-22T12:49:44.928Z,5210
2023-02-22T12:54:49.140Z,5010
2023-02-22T12:59:53.246Z,4770
2023-02-22T13:04:57.735Z,4641
2023-02-22T13:10:01.612Z,4540
2023-02-22T13:15:05.742Z,4505
2023-02-22T13:20:10.023Z,4634
2023-02-22T13:25:14.058Z,4805
2023-02-22T13:30:18.237Z,4930
2023-02-22T13:35:22.364Z,5040
2023-02-22T13:40:26.507Z,5026
2023-02-22T13:45:30.682Z,4941
2023-02-22T13:50:34.859Z,4802
2023-02-22T13:55:38.988Z,4683
2023-02-22T14:00:43.176Z,4551
2023-02-22T14:05:47.491Z,4616
2023-02-22T14:10:51.502Z,4690
2023-02-22T14:15:55.680Z,4722
2023-02-22T14:20:59.806Z,5049
2023-02-22T14:26:02.051Z,5323
2023-02-22T14:31:06.401Z,5344
2023-02-22T14:36:08.514Z,5325
2023-02-22T14:41:12.650Z,5400
2023-02-22T14:46:14.960Z,5403
2023-02-22T14:51:21.871Z,5470
2023-02-22T14:56:23.279Z,5271
2023-02-22T15:01:36.707Z,4997
2023-02-22T15:06:31.607Z,4963
2023-02-22T15:11:35.728Z,4869
2023-02-22T15:16:39.911Z,4554
2023-02-22T15:21:44.066Z,4111
2023-02-22T15:27:00.862Z,3648
2023-02-22T15:31:52.447Z,3299
2023-02-22T15:36:56.550Z,3088
2023-02-22T15:42:00.724Z,2974
2023-02-22T15:47:04.843Z,2912
2023-02-22T15:52:09.025Z,2830
2023-02-22T15:57:13.254Z,2658
2023-02-22T16:02:17.368Z,2427
2023-02-22T16:07:21.517Z,2175
2023-02-22T16:12:25.712Z,1885
2023-02-22T16:17:29.882Z,1557
2023-02-22T16:22:33.977Z,1315
2023-02-22T16:29:05.315Z,1043
2023-02-22T16:34:09.412Z,820
2023-02-22T16:39:13.570Z,640
2023-02-22T16:44:17.784Z,505
2023-02-22T16:49:21.878Z,373
2023-02-22T16:54:26.073Z,238
2023-02-22T16:59:30.209Z,143
2023-02-22T17:04:34.358Z,85
2023-02-22T17:09:38.549Z,50
2023-02-22T17:14:42.715Z,25
2023-02-22T17:19:46.861Z,11
2023-02-22T17:24:51.037Z,4
2023-02-22T17:29:55.190Z,1
2023-02-22T17:34:59.352Z,0
2023-02-22T17:40:03.551Z,0
2023-02-22T17:45:07.670Z,0
2023-02-22T17:50:11.839Z,0
2023-02-22T17:55:15.974Z,0
2023-02-22T18:00:20.188Z,0
2023-02-22T18:05:22.408Z,0
2023-02-22T18:10:26.607Z,0
2023-02-22T18:15:30.719Z,0
2023-02-22T18:20:34.873Z,0
2023-02-22T18:25:39.098Z,0
2023-02-22T18:30:43.273Z,0
2023-02-22T18:35:47.375Z,0
2023-02-22T18:40:51.534Z,0
2023-02-22T18:45:55.726Z,0
2023-02-22T18:50:59.852Z,0
2023-02-22T18:56:04.019Z,0
2023-02-22T19:01:08.176Z,0
2023-02-22T19:06:12.393Z,0
2023-02-22T19:11:16.505Z,0
2023-02-22T19:16:21.233Z,0
2023-02-22T19:21:24.846Z,0
2023-02-22T19:26:29.023Z,0
2023-02-22T19:31:33.146Z,0
2023-02-22T19:36:37.333Z,0
2023-02-22T19:41:41.477Z,0
2023-02-22T19:46:47.592Z,0
2023-02-22T19:51:47.924Z,0
2023-02-22T19:56:52.081Z,0
2023-02-22T20:01:56.243Z,0
2023-02-22T20:12:04.549Z,0
2023-02-22T20:17:08.734Z,0
2023-02-22T20:22:12.879Z,0
2023-02-22T20:27:17.081Z,0
2023-02-22T20:32:21.469Z,0
2023-02-22T20:37:25.363Z,0
2023-02-22T20:42:29.517Z,0
2023-02-22T20:47:33.703Z,0
2023-02-22T20:52:37.845Z,0
2023-02-22T20:57:42.024Z,0
2023-02-22T21:02:46.174Z,0
2023-02-22T21:07:50.333Z,0
2023-02-22T21:12:55.202Z,0
2023-02-22T21:17:58.694Z,0
2023-02-22T21:23:02.799Z,0
2023-02-22T21:28:06.960Z,0
2023-02-22T21:33:11.174Z,0
2023-02-22T21:38:15.432Z,0
2023-02-22T21:43:17.577Z,0
2023-02-22T21:48:21.761Z,0
2023-02-22T21:53:24.032Z,0
2023-02-22T21:58:28.187Z,0
2023-02-22T22:03:32.352Z,0
2023-02-22T22:08:36.520Z,0
2023-02-22T22:13:40.681Z,0
2023-02-22T22:18:44.813Z,0
2023-02-22T22:23:48.962Z,0
2023-02-22T22:28:53.134Z,0
2023-02-22T22:33:57.315Z,0
2023-02-22T22:39:01.541Z,0
2023-02-22T22:44:05.618Z,0
2023-02-22T22:49:09.799Z,0
2023-02-22T22:54:13.942Z,0
2023-02-22T22:59:18.092Z,0
2023-02-22T23:04:22.258Z,0
2023-02-22T23:09:26.436Z,0
2023-02-22T23:14:30.575Z,0
2023-02-22T23:19:34.813Z,0
2023-02-22T23:24:38.881Z,0
2023-02-22T23:29:43.132Z,0
2023-02-22T23:34:47.260Z,0
2023-02-22T23:39:49.512Z,0
2023-02-22T23:44:53.687Z,0
2023-02-22T23:49:55.971Z,0
2023-02-22T23:55:00.137Z,0
